Time;durP1;ratioP1;P1;durP2;ratioP2;P2;SDS_P1;SDS_P2;PMS_P1;PMS_P2;Temp;Humidity;BMP_temperature;BMP_pressure;BME280_temperature;BME280_humidity;BME280_pressure;Samples;Min_cycle;Max_cycle;Signal;HPM_P1;HPM_P2
2023/08/11 00:01:13;;;;;;;57.20;2.67;;;;;;;;;;5074244;28;20443;-68
2023/08/11 00:03:43;;;;;;;57.50;2.57;;;;;;;;;;5073794;28;20463;-68
2023/08/11 00:06:10;;;;;;;58.03;3.00;;;;;;;;;;5074225;28;20831;-68
2023/08/11 00:08:39;;;;;;;56.60;2.10;;;;;;;;;;5074389;28;20439;-68
2023/08/11 00:11:06;;;;;;;57.00;2.50;;;;;;;;;;5074161;28;20447;-68
2023/08/11 00:13:33;;;;;;;56.47;2.10;;;;;;;;;;5073705;28;20530;-68
2023/08/11 00:16:02;;;;;;;56.83;2.30;;;;;;;;;;5073824;28;20457;-69
2023/08/11 00:18:29;;;;;;;56.60;2.23;;;;;;;;;;5073721;28;20483;-68
2023/08/11 00:20:58;;;;;;;56.67;2.33;;;;;;;;;;5074019;28;20533;-69
2023/08/11 00:23:25;;;;;;;56.80;2.30;;;;;;;;;;5073449;28;20467;-69
2023/08/11 00:25:52;;;;;;;56.67;2.30;;;;;;;;;;5073754;28;20446;-68
2023/08/11 00:28:19;;;;;;;57.33;2.87;;;;;;;;;;5073682;28;20540;-68
2023/08/11 00:30:46;;;;;;;57.00;3.00;;;;;;;;;;5073666;28;20443;-69
2023/08/11 00:33:13;;;;;;;56.57;2.50;;;;;;;;;;5073466;28;20460;-69
2023/08/11 00:35:42;;;;;;;56.90;2.30;;;;;;;;;;5073571;28;20450;-69
2023/08/11 00:38:11;;;;;;;56.80;2.70;;;;;;;;;;5073589;28;20867;-68
2023/08/11 00:40:38;;;;;;;56.73;2.40;;;;;;;;;;5072787;28;20967;-68
2023/08/11 00:43:05;;;;;;;57.70;3.20;;;;;;;;;;5073201;28;20467;-69
2023/08/11 00:45:33;;;;;;;57.50;2.80;;;;;;;;;;5073315;28;20443;-69
2023/08/11 00:48:00;;;;;;;56.77;2.40;;;;;;;;;;5073468;28;21009;-69
2023/08/11 00:50:28;;;;;;;56.63;2.30;;;;;;;;;;5073514;28;20439;-69
2023/08/11 00:52:55;;;;;;;57.10;2.50;;;;;;;;;;5072958;28;20470;-69
2023/08/11 00:55:24;;;;;;;56.77;2.40;;;;;;;;;;5073296;28;20475;-69
2023/08/11 00:57:51;;;;;;;58.80;3.03;;;;;;;;;;5073013;28;20972;-69
2023/08/11 01:00:19;;;;;;;56.53;2.53;;;;;;;;;;5073333;28;20440;-69
2023/08/11 01:02:46;;;;;;;56.77;2.40;;;;;;;;;;5072963;28;20513;-69
2023/08/11 01:05:15;;;;;;;57.30;2.60;;;;;;;;;;5073374;28;20538;-69
2023/08/11 01:07:45;;;;;;;56.87;2.37;;;;;;;;;;5073094;28;20447;-69
2023/08/11 01:10:17;;;;;;;56.87;2.53;;;;;;;;;;5073281;28;20453;-69
2023/08/11 01:12:49;;;;;;;58.80;2.47;;;;;;;;;;5072603;28;20556;-69
2023/08/11 01:15:17;;;;;;;56.83;2.40;;;;;;;;;;5073181;28;20467;-69
2023/08/11 01:17:45;;;;;;;56.90;2.27;;;;;;;;;;5072756;28;20475;-69
2023/08/11 01:20:15;;;;;;;58.77;3.00;;;;;;;;;;5072926;28;20443;-69
2023/08/11 01:22:44;;;;;;;56.97;2.50;;;;;;;;;;5072554;28;20444;-69
2023/08/11 01:25:13;;;;;;;56.93;2.80;;;;;;;;;;5072713;28;20950;-69
2023/08/11 01:27:45;;;;;;;56.97;2.77;;;;;;;;;;5072741;28;20442;-69
2023/08/11 01:30:12;;;;;;;57.67;2.80;;;;;;;;;;5072940;28;20435;-69
2023/08/11 01:32:39;;;;;;;57.57;2.90;;;;;;;;;;5072531;28;20447;-69
2023/08/11 01:35:09;;;;;;;57.30;3.07;;;;;;;;;;5072580;28;20447;-69
2023/08/11 01:37:36;;;;;;;58.60;3.00;;;;;;;;;;5072247;28;20483;-69
2023/08/11 01:40:05;;;;;;;57.80;2.93;;;;;;;;;;5070949;28;20485;-69
2023/08/11 01:42:34;;;;;;;59.67;2.97;;;;;;;;;;5071959;28;20447;-69
2023/08/11 01:45:01;;;;;;;57.10;2.80;;;;;;;;;;5072565;28;20452;-69
2023/08/11 01:47:28;;;;;;;57.40;3.10;;;;;;;;;;5072377;28;20439;-69
2023/08/11 01:49:55;;;;;;;57.30;2.80;;;;;;;;;;5072521;28;20436;-69
2023/08/11 01:52:22;;;;;;;57.30;2.70;;;;;;;;;;5071860;28;20444;-70
2023/08/11 01:54:49;;;;;;;57.60;2.37;;;;;;;;;;5072051;28;20935;-69
2023/08/11 01:57:17;;;;;;;56.90;2.67;;;;;;;;;;5072000;28;20483;-70
2023/08/11 01:59:45;;;;;;;56.90;2.47;;;;;;;;;;5071905;28;20453;-69
2023/08/11 02:02:12;;;;;;;57.07;2.77;;;;;;;;;;5072071;28;20450;-70
2023/08/11 02:04:39;;;;;;;57.27;2.70;;;;;;;;;;5071909;28;20464;-70
2023/08/11 02:07:06;;;;;;;56.73;2.40;;;;;;;;;;5071971;28;20439;-70
2023/08/11 02:09:33;;;;;;;57.50;3.20;;;;;;;;;;5071881;28;21035;-70
2023/08/11 02:12:00;;;;;;;57.00;2.60;;;;;;;;;;5071916;28;20451;-70
2023/08/11 02:14:28;;;;;;;56.87;2.47;;;;;;;;;;5071760;28;20463;-70
2023/08/11 02:16:56;;;;;;;56.90;3.00;;;;;;;;;;5071540;28;20450;-70
2023/08/11 02:19:24;;;;;;;57.60;2.80;;;;;;;;;;5071751;28;20884;-70
2023/08/11 02:21:51;;;;;;;56.97;2.57;;;;;;;;;;5071586;28;20457;-70
2023/08/11 02:24:18;;;;;;;57.03;2.40;;;;;;;;;;5071611;28;20469;-70
2023/08/11 02:26:46;;;;;;;56.83;2.40;;;;;;;;;;5071509;28;20449;-70
2023/08/11 02:29:13;;;;;;;57.20;2.50;;;;;;;;;;5071840;28;20439;-70
2023/08/11 02:31:41;;;;;;;57.13;2.60;;;;;;;;;;5071469;28;20439;-70
2023/08/11 02:34:09;;;;;;;56.90;2.47;;;;;;;;;;5071532;28;20458;-70
2023/08/11 02:36:37;;;;;;;57.57;3.00;;;;;;;;;;5071623;28;20455;-70
2023/08/11 02:39:05;;;;;;;59.87;3.20;;;;;;;;;;5071279;28;20491;-70
2023/08/11 02:41:33;;;;;;;56.83;2.47;;;;;;;;;;5071365;28;20547;-69
2023/08/11 02:44:00;;;;;;;56.77;2.57;;;;;;;;;;5071475;28;20474;-70
2023/08/11 02:46:27;;;;;;;56.77;2.40;;;;;;;;;;5071701;28;20451;-70
2023/08/11 02:48:54;;;;;;;57.07;2.77;;;;;;;;;;5072409;28;20901;-70
2023/08/11 02:51:22;;;;;;;57.07;2.97;;;;;;;;;;5072463;28;20443;-70
2023/08/11 02:53:49;;;;;;;56.80;2.40;;;;;;;;;;5071297;28;20464;-70
2023/08/11 02:56:17;;;;;;;56.67;2.23;;;;;;;;;;5071741;28;20451;-70
2023/08/11 02:58:44;;;;;;;59.47;3.17;;;;;;;;;;5071113;28;20482;-70
2023/08/11 03:01:11;;;;;;;56.73;2.60;;;;;;;;;;5071311;28;20444;-70
2023/08/11 03:03:39;;;;;;;56.57;2.47;;;;;;;;;;5070403;28;20974;-70
2023/08/11 03:06:06;;;;;;;56.77;2.40;;;;;;;;;;5071180;28;20498;-70
2023/08/11 03:08:35;;;;;;;56.77;2.40;;;;;;;;;;5071077;28;20476;-70
2023/08/11 03:11:02;;;;;;;57.07;2.90;;;;;;;;;;5071020;28;20443;-70
2023/08/11 03:13:29;;;;;;;56.87;2.53;;;;;;;;;;5070944;28;20517;-70
2023/08/11 03:15:56;;;;;;;56.97;2.53;;;;;;;;;;5071359;28;20447;-70
2023/08/11 03:18:23;;;;;;;56.57;2.30;;;;;;;;;;5071273;28;20870;-70
2023/08/11 03:20:51;;;;;;;56.70;2.40;;;;;;;;;;5071055;28;20443;-70
2023/08/11 03:23:18;;;;;;;57.87;2.90;;;;;;;;;;5070856;28;20467;-70
2023/08/11 03:25:46;;;;;;;56.60;2.33;;;;;;;;;;5071229;28;20525;-70
2023/08/11 03:28:13;;;;;;;56.80;2.70;;;;;;;;;;5071058;28;20436;-70
2023/08/11 03:30:40;;;;;;;57.00;2.80;;;;;;;;;;5071065;28;20447;-70
2023/08/11 03:33:08;;;;;;;57.10;2.80;;;;;;;;;;5070588;28;20830;-70
2023/08/11 03:35:35;;;;;;;56.87;2.70;;;;;;;;;;5071073;28;20509;-70
2023/08/11 03:38:02;;;;;;;57.30;3.00;;;;;;;;;;5071496;28;20490;-70
2023/08/11 03:40:30;;;;;;;56.47;2.40;;;;;;;;;;5071038;28;20439;-70
2023/08/11 03:42:58;;;;;;;56.77;2.40;;;;;;;;;;5070715;28;20470;-70
2023/08/11 03:45:25;;;;;;;59.17;2.93;;;;;;;;;;5070638;28;20462;-70
2023/08/11 03:47:53;;;;;;;56.53;2.37;;;;;;;;;;5070622;28;20445;-70
2023/08/11 03:50:20;;;;;;;57.10;2.80;;;;;;;;;;5070676;28;20813;-70
2023/08/11 03:52:48;;;;;;;56.70;2.30;;;;;;;;;;5070871;28;21001;-70
2023/08/11 03:55:15;;;;;;;56.63;2.73;;;;;;;;;;5070824;28;20443;-70
2023/08/11 03:57:42;;;;;;;56.67;2.30;;;;;;;;;;5070504;28;20957;-70
2023/08/11 04:00:14;;;;;;;57.10;2.40;;;;;;;;;;5070718;28;20814;-70
2023/08/11 04:02:41;;;;;;;56.67;2.50;;;;;;;;;;5070192;28;20466;-70
2023/08/11 04:05:10;;;;;;;57.20;3.00;;;;;;;;;;5070777;28;20455;-70
2023/08/11 04:07:37;;;;;;;57.20;3.33;;;;;;;;;;5070757;28;20462;-70
2023/08/11 04:10:05;;;;;;;56.47;2.20;;;;;;;;;;5070537;28;20910;-69
2023/08/11 04:12:32;;;;;;;56.80;2.40;;;;;;;;;;5070330;28;20458;-69
2023/08/11 04:14:59;;;;;;;56.43;2.40;;;;;;;;;;5067354;28;20522;-69
2023/08/11 04:17:28;;;;;;;56.67;2.47;;;;;;;;;;5073638;28;20455;-69
2023/08/11 04:19:55;;;;;;;58.90;2.67;;;;;;;;;;5060296;28;20487;-69
2023/08/11 04:22:22;;;;;;;56.43;2.20;;;;;;;;;;5053806;28;20446;-70
2023/08/11 04:24:50;;;;;;;57.47;2.50;;;;;;;;;;5063998;28;20816;-70
2023/08/11 04:27:17;;;;;;;57.20;3.10;;;;;;;;;;5054083;28;20455;-70
2023/08/11 04:29:44;;;;;;;57.40;3.87;;;;;;;;;;5053687;28;20436;-70
2023/08/11 04:32:12;;;;;;;56.70;2.53;;;;;;;;;;5053670;28;20449;-69
2023/08/11 04:34:40;;;;;;;57.00;2.60;;;;;;;;;;5053631;28;20468;-69
2023/08/11 04:37:08;;;;;;;56.53;2.20;;;;;;;;;;5053602;28;20805;-70
2023/08/11 04:39:36;;;;;;;56.77;2.80;;;;;;;;;;5053422;28;20510;-69
2023/08/11 04:42:03;;;;;;;56.80;2.50;;;;;;;;;;5053251;28;20451;-69
2023/08/11 04:44:31;;;;;;;56.57;2.50;;;;;;;;;;5053322;28;20460;-70
2023/08/11 04:46:58;;;;;;;56.80;2.43;;;;;;;;;;5053638;28;20456;-70
2023/08/11 04:49:25;;;;;;;56.70;2.17;;;;;;;;;;5053499;28;20523;-70
2023/08/11 04:51:54;;;;;;;56.57;2.10;;;;;;;;;;5053057;28;20458;-69
2023/08/11 04:54:21;;;;;;;56.67;2.50;;;;;;;;;;5053280;28;20464;-70
2023/08/11 04:56:49;;;;;;;56.70;2.40;;;;;;;;;;5053142;28;20444;-70
2023/08/11 04:59:16;;;;;;;58.70;3.03;;;;;;;;;;5053391;28;21015;-70
2023/08/11 05:01:43;;;;;;;57.63;2.80;;;;;;;;;;5052832;28;20444;-69
2023/08/11 05:04:10;;;;;;;59.60;4.73;;;;;;;;;;5052996;28;20471;-70
2023/08/11 05:06:37;;;;;;;56.90;2.63;;;;;;;;;;5053047;28;20479;-70
2023/08/11 05:09:06;;;;;;;57.20;3.73;;;;;;;;;;5053261;28;20443;-70
2023/08/11 05:11:34;;;;;;;56.60;2.50;;;;;;;;;;5052842;28;20459;-69
2023/08/11 05:14:01;;;;;;;56.67;2.30;;;;;;;;;;5053149;28;20460;-69
2023/08/11 05:16:28;;;;;;;56.37;2.50;;;;;;;;;;5052913;28;20971;-69
2023/08/11 05:18:55;;;;;;;57.27;2.50;;;;;;;;;;5052944;28;20849;-69
2023/08/11 05:21:22;;;;;;;56.77;3.00;;;;;;;;;;5052999;28;20824;-69
2023/08/11 05:23:49;;;;;;;56.57;2.53;;;;;;;;;;5052540;28;20475;-69
2023/08/11 05:26:17;;;;;;;56.77;2.77;;;;;;;;;;5052604;28;20447;-69
2023/08/11 05:28:45;;;;;;;56.90;2.90;;;;;;;;;;5052641;28;20954;-69
2023/08/11 05:31:12;;;;;;;56.67;2.60;;;;;;;;;;5052698;28;20948;-69
2023/08/11 05:33:40;;;;;;;56.40;2.20;;;;;;;;;;5052546;28;20842;-69
2023/08/11 05:36:08;;;;;;;56.40;2.40;;;;;;;;;;5052459;28;20531;-69
2023/08/11 05:38:35;;;;;;;57.00;3.17;;;;;;;;;;5052247;28;20488;-70
2023/08/11 05:41:03;;;;;;;56.50;2.40;;;;;;;;;;5052759;28;20444;-70
2023/08/11 05:43:31;;;;;;;56.80;2.47;;;;;;;;;;5052095;28;20471;-69
2023/08/11 05:45:58;;;;;;;56.77;2.80;;;;;;;;;;5052374;28;20451;-69
2023/08/11 05:48:25;;;;;;;56.30;2.30;;;;;;;;;;5052573;28;20444;-69
2023/08/11 05:50:53;;;;;;;56.33;2.13;;;;;;;;;;5052205;28;20440;-69
2023/08/11 05:53:20;;;;;;;57.10;2.50;;;;;;;;;;5052032;28;20831;-69
2023/08/11 05:55:46;;;;;;;57.17;2.77;;;;;;;;;;5052407;28;20444;-69
2023/08/11 05:58:13;;;;;;;56.87;2.43;;;;;;;;;;5052142;28;20440;-70
2023/08/11 06:00:42;;;;;;;56.70;3.30;;;;;;;;;;5052563;28;20441;-70
2023/08/11 06:03:09;;;;;;;56.30;2.23;;;;;;;;;;5051756;28;20472;-69
2023/08/11 06:05:36;;;;;;;57.10;2.50;;;;;;;;;;5051815;28;20932;-69
2023/08/11 06:08:03;;;;;;;56.73;2.63;;;;;;;;;;5052101;28;20448;-70
2023/08/11 06:10:30;;;;;;;56.37;2.20;;;;;;;;;;5052309;28;20749;-69
2023/08/11 06:12:57;;;;;;;56.37;2.30;;;;;;;;;;5051466;28;20460;-69
2023/08/11 06:15:24;;;;;;;56.50;2.40;;;;;;;;;;5051762;28;20452;-69
2023/08/11 06:17:53;;;;;;;56.43;2.30;;;;;;;;;;5052032;28;20440;-69
2023/08/11 06:20:21;;;;;;;56.70;2.30;;;;;;;;;;5051654;28;20491;-69
2023/08/11 06:22:49;;;;;;;56.43;2.30;;;;;;;;;;5051533;28;20468;-69
2023/08/11 06:25:16;;;;;;;56.50;2.50;;;;;;;;;;5051827;28;20897;-69
2023/08/11 06:27:44;;;;;;;56.43;2.40;;;;;;;;;;5051656;28;20501;-69
2023/08/11 06:30:11;;;;;;;56.37;2.20;;;;;;;;;;5051380;28;20924;-68
2023/08/11 06:32:39;;;;;;;57.10;3.90;;;;;;;;;;5051033;28;20444;-68
2023/08/11 06:35:08;;;;;;;56.40;2.30;;;;;;;;;;5051608;28;20440;-69
2023/08/11 06:37:35;;;;;;;56.80;2.50;;;;;;;;;;5050844;28;20457;-69
2023/08/11 06:40:02;;;;;;;56.80;2.90;;;;;;;;;;5051155;28;20484;-69
2023/08/11 06:42:29;;;;;;;56.50;2.30;;;;;;;;;;5050981;28;20448;-69
2023/08/11 06:44:56;;;;;;;57.00;2.60;;;;;;;;;;5051309;28;20940;-69
2023/08/11 06:47:24;;;;;;;57.37;3.17;;;;;;;;;;5051159;28;20835;-69
2023/08/11 06:49:51;;;;;;;56.90;3.27;;;;;;;;;;5051325;28;20444;-69
2023/08/11 06:52:20;;;;;;;56.60;2.33;;;;;;;;;;5051309;28;20444;-69
2023/08/11 06:54:47;;;;;;;57.10;2.83;;;;;;;;;;5051502;28;20468;-69
2023/08/11 06:57:14;;;;;;;56.07;2.07;;;;;;;;;;5051057;28;20459;-69
2023/08/11 06:59:41;;;;;;;57.10;2.50;;;;;;;;;;5051223;28;20480;-69
2023/08/11 07:02:08;;;;;;;56.40;2.40;;;;;;;;;;5051023;28;20444;-69
2023/08/11 07:04:35;;;;;;;56.43;2.40;;;;;;;;;;5051136;28;20464;-69
2023/08/11 07:07:02;;;;;;;57.43;2.70;;;;;;;;;;5051098;28;20444;-69
2023/08/11 07:09:31;;;;;;;56.80;2.60;;;;;;;;;;5051504;28;20443;-69
2023/08/11 07:11:58;;;;;;;62.43;3.30;;;;;;;;;;5050647;28;20448;-69
2023/08/11 07:14:25;;;;;;;56.97;2.70;;;;;;;;;;5051020;28;20464;-69
2023/08/11 07:16:52;;;;;;;56.40;2.30;;;;;;;;;;5050884;28;20940;-69
2023/08/11 07:19:20;;;;;;;56.70;2.30;;;;;;;;;;5050968;28;20476;-69
2023/08/11 07:21:47;;;;;;;57.20;2.40;;;;;;;;;;5050807;28;20444;-69
2023/08/11 07:24:14;;;;;;;56.70;2.50;;;;;;;;;;5050930;28;20819;-69
2023/08/11 07:26:43;;;;;;;56.90;2.60;;;;;;;;;;5050824;28;20448;-69
2023/08/11 07:29:10;;;;;;;57.20;2.80;;;;;;;;;;5051015;28;20443;-69
2023/08/11 07:31:39;;;;;;;56.60;2.37;;;;;;;;;;5050579;28;20542;-69
2023/08/11 07:34:06;;;;;;;56.90;2.50;;;;;;;;;;5050763;28;20472;-69
2023/08/11 07:36:33;;;;;;;56.50;1.80;;;;;;;;;;5050650;28;20471;-69
2023/08/11 07:39:00;;;;;;;56.40;2.10;;;;;;;;;;5050658;28;21023;-69
2023/08/11 07:41:27;;;;;;;56.23;2.00;;;;;;;;;;5050819;28;20467;-69
2023/08/11 07:43:56;;;;;;;56.27;2.10;;;;;;;;;;5050618;28;20467;-69
2023/08/11 07:46:23;;;;;;;56.47;2.60;;;;;;;;;;5050821;28;20440;-69
2023/08/11 07:48:50;;;;;;;56.07;2.10;;;;;;;;;;5050938;28;20447;-69
2023/08/11 07:51:17;;;;;;;56.37;2.10;;;;;;;;;;5054534;28;20453;-69
2023/08/11 07:53:45;;;;;;;57.10;2.40;;;;;;;;;;5054224;28;20467;-69
2023/08/11 07:56:12;;;;;;;56.37;1.90;;;;;;;;;;5054233;28;20440;-69
2023/08/11 07:58:39;;;;;;;56.70;2.53;;;;;;;;;;5054569;28;20439;-69
2023/08/11 08:01:08;;;;;;;56.60;2.00;;;;;;;;;;5054523;28;20503;-69
2023/08/11 08:03:35;;;;;;;56.77;2.87;;;;;;;;;;5053979;28;20495;-69
2023/08/11 08:06:04;;;;;;;56.40;2.10;;;;;;;;;;5054308;28;20448;-69
2023/08/11 08:08:33;;;;;;;57.00;2.47;;;;;;;;;;5054116;28;20786;-69
2023/08/11 08:11:00;;;;;;;56.27;1.90;;;;;;;;;;5054109;28;20448;-69
2023/08/11 08:13:27;;;;;;;56.70;2.30;;;;;;;;;;5053822;28;21006;-69
2023/08/11 08:15:54;;;;;;;56.57;2.00;;;;;;;;;;5054059;28;20444;-69
2023/08/11 08:18:23;;;;;;;56.97;2.40;;;;;;;;;;5053978;28;20515;-69
2023/08/11 08:20:50;;;;;;;57.37;2.83;;;;;;;;;;5054100;28;20476;-69
2023/08/11 08:23:17;;;;;;;56.60;2.23;;;;;;;;;;5053718;28;20464;-69
2023/08/11 08:25:44;;;;;;;57.30;2.10;;;;;;;;;;5053732;28;20912;-69
2023/08/11 08:28:11;;;;;;;55.87;2.10;;;;;;;;;;5053963;28;20814;-69
2023/08/11 08:30:39;;;;;;;56.80;2.10;;;;;;;;;;5053818;28;20506;-69
2023/08/11 08:33:07;;;;;;;56.23;2.27;;;;;;;;;;5053312;28;20474;-69
2023/08/11 08:35:36;;;;;;;56.27;1.87;;;;;;;;;;5053697;28;20444;-69
2023/08/11 08:38:03;;;;;;;56.80;2.30;;;;;;;;;;5053610;28;20848;-69
2023/08/11 08:40:30;;;;;;;57.23;3.10;;;;;;;;;;5053615;28;20487;-69
2023/08/11 08:42:57;;;;;;;117.43;39.10;;;;;;;;;;5053282;28;20471;-69
2023/08/11 08:45:25;;;;;;;61.23;3.10;;;;;;;;;;5053414;28;20468;-69
2023/08/11 08:47:53;;;;;;;61.00;4.20;;;;;;;;;;5053450;28;20450;-69
2023/08/11 08:50:20;;;;;;;58.50;3.07;;;;;;;;;;5053285;28;20440;-69
2023/08/11 08:52:49;;;;;;;56.47;2.20;;;;;;;;;;5052962;28;20976;-69
2023/08/11 08:55:16;;;;;;;56.80;3.00;;;;;;;;;;5053318;28;20445;-69
2023/08/11 08:57:44;;;;;;;56.47;2.20;;;;;;;;;;5053308;28;20509;-69
2023/08/11 09:00:12;;;;;;;57.40;3.20;;;;;;;;;;5052955;28;20484;-69
2023/08/11 09:02:39;;;;;;;56.33;2.10;;;;;;;;;;5052238;28;20948;-67
2023/08/11 09:05:06;;;;;;;57.63;2.77;;;;;;;;;;5053073;28;20440;-67
2023/08/11 09:07:34;;;;;;;56.80;2.20;;;;;;;;;;5053231;28;20448;-67
2023/08/11 09:10:02;;;;;;;56.60;1.80;;;;;;;;;;5053179;28;20441;-67
2023/08/11 09:12:29;;;;;;;56.80;2.40;;;;;;;;;;5052553;28;20447;-67
2023/08/11 09:14:58;;;;;;;56.00;1.90;;;;;;;;;;5052869;28;20962;-67
2023/08/11 09:17:25;;;;;;;56.17;2.10;;;;;;;;;;5052674;28;20455;-69
2023/08/11 09:19:53;;;;;;;56.13;2.20;;;;;;;;;;5052979;28;20570;-69
2023/08/11 09:22:25;;;;;;;56.10;1.90;;;;;;;;;;5052946;28;20436;-67
2023/08/11 09:24:52;;;;;;;56.40;2.10;;;;;;;;;;5052843;28;20481;-67
2023/08/11 09:27:21;;;;;;;56.80;2.10;;;;;;;;;;5052634;28;20448;-67
2023/08/11 09:29:49;;;;;;;56.43;2.10;;;;;;;;;;5052517;28;20440;-67
2023/08/11 09:32:16;;;;;;;56.40;2.20;;;;;;;;;;5052532;28;20492;-67
2023/08/11 09:34:44;;;;;;;56.33;2.00;;;;;;;;;;5052484;28;20464;-68
2023/08/11 09:37:11;;;;;;;57.07;2.17;;;;;;;;;;5052501;28;20831;-69
2023/08/11 09:39:39;;;;;;;56.27;2.07;;;;;;;;;;5052597;28;20486;-69
2023/08/11 09:42:08;;;;;;;56.60;2.20;;;;;;;;;;5052128;28;20450;-69
2023/08/11 09:44:38;;;;;;;56.50;2.20;;;;;;;;;;5052405;28;21203;-69
2023/08/11 09:47:06;;;;;;;56.07;2.03;;;;;;;;;;5052749;28;20449;-69
2023/08/11 09:49:33;;;;;;;57.50;2.80;;;;;;;;;;5052464;28;20449;-69
2023/08/11 09:52:02;;;;;;;56.57;2.03;;;;;;;;;;5052083;28;20444;-69
2023/08/11 09:54:29;;;;;;;57.27;2.80;;;;;;;;;;5052321;28;20468;-69
2023/08/11 09:56:56;;;;;;;57.47;2.47;;;;;;;;;;5052064;28;20444;-69
2023/08/11 09:59:24;;;;;;;56.90;2.30;;;;;;;;;;5052149;28;20444;-69
2023/08/11 10:01:54;;;;;;;56.17;1.80;;;;;;;;;;5051945;28;20906;-69
2023/08/11 10:04:28;;;;;;;58.40;2.50;;;;;;;;;;5052059;28;20464;-69
2023/08/11 10:06:58;;;;;;;56.17;1.90;;;;;;;;;;5051921;28;20444;-69
2023/08/11 10:09:27;;;;;;;59.17;2.50;;;;;;;;;;5051847;28;20444;-69
2023/08/11 10:11:54;;;;;;;57.77;3.20;;;;;;;;;;5051911;28;20812;-69
2023/08/11 10:14:22;;;;;;;56.30;2.07;;;;;;;;;;5051695;28;21113;-69
2023/08/11 10:16:49;;;;;;;56.10;1.80;;;;;;;;;;5052115;28;20907;-69
2023/08/11 10:19:18;;;;;;;55.97;1.80;;;;;;;;;;5051709;28;20963;-69
2023/08/11 10:21:45;;;;;;;56.07;2.30;;;;;;;;;;5051284;28;20499;-69
2023/08/11 10:24:12;;;;;;;55.67;1.57;;;;;;;;;;5051748;28;20468;-70
2023/08/11 10:26:39;;;;;;;55.50;1.70;;;;;;;;;;5051410;28;20966;-70
2023/08/11 10:29:06;;;;;;;55.40;2.00;;;;;;;;;;5051620;28;20796;-70
2023/08/11 10:31:34;;;;;;;56.10;1.90;;;;;;;;;;5051608;28;20797;-67
2023/08/11 10:34:06;;;;;;;55.40;1.93;;;;;;;;;;5051246;28;20467;-68
2023/08/11 10:36:35;;;;;;;55.43;1.87;;;;;;;;;;5051277;28;20451;-70
2023/08/11 10:39:03;;;;;;;55.40;2.10;;;;;;;;;;5051445;28;20452;-70
2023/08/11 10:41:31;;;;;;;55.40;2.00;;;;;;;;;;5051281;28;21056;-70
2023/08/11 10:43:59;;;;;;;55.30;1.97;;;;;;;;;;5051009;28;20972;-70
2023/08/11 10:46:27;;;;;;;54.97;1.73;;;;;;;;;;5051213;28;20448;-68
2023/08/11 10:48:55;;;;;;;54.93;1.93;;;;;;;;;;5051156;28;20444;-68
2023/08/11 10:51:25;;;;;;;55.20;2.23;;;;;;;;;;5051333;28;20440;-68
2023/08/11 10:53:55;;;;;;;54.63;1.80;;;;;;;;;;5050762;28;20832;-69
2023/08/11 10:56:28;;;;;;;54.97;1.90;;;;;;;;;;5051265;28;20468;-68
2023/08/11 10:59:05;;;;;;;54.77;2.03;;;;;;;;;;5051128;28;20494;-68
2023/08/11 11:01:32;;;;;;;54.50;2.00;;;;;;;;;;5050787;28;20491;-68
2023/08/11 11:04:01;;;;;;;54.80;1.90;;;;;;;;;;5050788;28;20471;-68
2023/08/11 11:06:28;;;;;;;56.30;2.23;;;;;;;;;;5051096;28;20449;-69
2023/08/11 11:08:56;;;;;;;54.77;1.80;;;;;;;;;;5051105;28;20444;-69
2023/08/11 11:11:23;;;;;;;55.47;2.57;;;;;;;;;;5050910;28;20811;-68
2023/08/11 11:13:51;;;;;;;55.50;2.20;;;;;;;;;;5050574;28;20487;-69
2023/08/11 11:16:18;;;;;;;54.43;1.70;;;;;;;;;;5050941;28;21168;-68
2023/08/11 11:18:47;;;;;;;55.40;2.20;;;;;;;;;;5051030;28;20448;-68
2023/08/11 11:21:14;;;;;;;54.80;2.10;;;;;;;;;;5051066;28;20904;-68
2023/08/11 11:23:44;;;;;;;55.90;2.80;;;;;;;;;;5050714;28;20459;-69
2023/08/11 11:26:13;;;;;;;54.37;1.73;;;;;;;;;;5054957;28;20440;-69
2023/08/11 11:28:40;;;;;;;54.67;1.67;;;;;;;;;;5054770;28;20451;-69
2023/08/11 11:31:07;;;;;;;55.53;2.13;;;;;;;;;;5055063;28;20450;-68
2023/08/11 11:33:34;;;;;;;54.80;1.70;;;;;;;;;;5054669;28;20943;-71
2023/08/11 11:36:02;;;;;;;54.37;1.87;;;;;;;;;;5054940;28;20448;-69
2023/08/11 11:38:29;;;;;;;54.80;1.73;;;;;;;;;;5054715;28;20466;-68
2023/08/11 11:40:56;;;;;;;54.90;2.30;;;;;;;;;;5054578;28;20483;-69
2023/08/11 11:43:25;;;;;;;54.90;2.33;;;;;;;;;;5054431;28;20474;-69
2023/08/11 11:45:52;;;;;;;54.40;2.00;;;;;;;;;;5054696;28;20449;-69
2023/08/11 11:48:19;;;;;;;54.23;1.90;;;;;;;;;;5054765;28;20448;-69
2023/08/11 11:50:47;;;;;;;55.23;1.90;;;;;;;;;;5054425;28;20932;-69
2023/08/11 11:53:14;;;;;;;54.50;2.10;;;;;;;;;;5054108;28;20468;-69
2023/08/11 11:55:45;;;;;;;54.30;1.80;;;;;;;;;;5054313;28;20729;-69
2023/08/11 11:58:12;;;;;;;54.50;1.97;;;;;;;;;;5054758;28;20467;-69
2023/08/11 12:00:40;;;;;;;54.10;2.10;;;;;;;;;;5054369;28;20884;-69
2023/08/11 12:03:08;;;;;;;54.17;1.93;;;;;;;;;;5054022;28;20466;-69
2023/08/11 12:05:35;;;;;;;54.10;1.90;;;;;;;;;;5054243;28;20448;-69
2023/08/11 12:08:17;;;;;;;54.47;2.20;;;;;;;;;;5054148;28;20448;-69
2023/08/11 12:10:46;;;;;;;54.67;2.40;;;;;;;;;;5054300;28;20440;-69
2023/08/11 12:13:13;;;;;;;54.20;1.90;;;;;;;;;;5054100;28;20782;-69
2023/08/11 12:15:41;;;;;;;54.70;2.20;;;;;;;;;;5054188;28;20470;-69
2023/08/11 12:18:08;;;;;;;54.80;2.37;;;;;;;;;;5054288;28;20448;-69
2023/08/11 12:20:37;;;;;;;54.90;2.30;;;;;;;;;;5054295;28;20501;-69
2023/08/11 12:23:04;;;;;;;54.50;2.07;;;;;;;;;;5053785;28;20505;-69
2023/08/11 12:25:31;;;;;;;55.10;2.00;;;;;;;;;;5053916;28;20547;-69
2023/08/11 12:28:01;;;;;;;54.27;2.00;;;;;;;;;;5053934;28;20444;-69
2023/08/11 12:30:28;;;;;;;55.13;2.10;;;;;;;;;;5053831;28;20444;-69
2023/08/11 12:32:56;;;;;;;54.40;2.27;;;;;;;;;;5053514;28;20460;-69
2023/08/11 12:35:24;;;;;;;54.50;1.83;;;;;;;;;;5052832;28;20455;-68
2023/08/11 12:37:51;;;;;;;54.60;2.27;;;;;;;;;;5053479;28;20460;-69
2023/08/11 12:40:21;;;;;;;54.77;2.30;;;;;;;;;;5053912;28;20444;-68
2023/08/11 12:42:48;;;;;;;54.07;1.90;;;;;;;;;;5053229;28;20563;-69
2023/08/11 12:45:15;;;;;;;54.70;2.10;;;;;;;;;;5053641;28;20933;-70
2023/08/11 12:47:42;;;;;;;54.80;2.00;;;;;;;;;;5053467;28;20940;-70
2023/08/11 12:50:11;;;;;;;54.67;1.80;;;;;;;;;;5053799;28;20451;-69
2023/08/11 12:52:38;;;;;;;55.90;2.30;;;;;;;;;;5053319;28;20484;-69
2023/08/11 12:55:05;;;;;;;54.70;1.90;;;;;;;;;;5053519;28;20452;-69
2023/08/11 12:57:32;;;;;;;55.40;2.27;;;;;;;;;;5053342;28;20527;-69
2023/08/11 12:59:59;;;;;;;54.97;2.67;;;;;;;;;;5053374;28;20449;-69
2023/08/11 13:02:26;;;;;;;55.03;1.87;;;;;;;;;;5053085;28;20447;-70
2023/08/11 13:04:53;;;;;;;54.60;2.00;;;;;;;;;;5053374;28;20444;-70
2023/08/11 13:07:22;;;;;;;54.27;1.90;;;;;;;;;;5053236;28;20444;-69
2023/08/11 13:09:49;;;;;;;54.50;1.90;;;;;;;;;;5053150;28;20448;-70
2023/08/11 13:12:16;;;;;;;54.20;1.90;;;;;;;;;;5052738;28;20488;-70
2023/08/11 13:14:43;;;;;;;54.37;2.30;;;;;;;;;;5053076;28;20464;-70
2023/08/11 13:17:11;;;;;;;54.43;1.90;;;;;;;;;;5053046;28;20444;-70
2023/08/11 13:19:38;;;;;;;54.63;2.13;;;;;;;;;;5053149;28;20850;-70
2023/08/11 13:22:06;;;;;;;54.20;2.10;;;;;;;;;;5052743;28;20545;-70
2023/08/11 13:24:34;;;;;;;54.37;2.20;;;;;;;;;;5052799;28;20475;-70
2023/08/11 13:27:02;;;;;;;54.10;1.90;;;;;;;;;;5052672;28;20444;-69
2023/08/11 13:29:29;;;;;;;54.17;2.13;;;;;;;;;;5052748;28;20990;-69
2023/08/11 13:31:56;;;;;;;54.43;2.10;;;;;;;;;;5052509;28;20865;-69
2023/08/11 13:34:23;;;;;;;53.90;2.03;;;;;;;;;;5052740;28;20809;-69
2023/08/11 13:36:50;;;;;;;54.17;1.80;;;;;;;;;;5052554;28;20452;-69
2023/08/11 13:39:17;;;;;;;57.47;2.70;;;;;;;;;;5052623;28;20463;-69
2023/08/11 13:41:47;;;;;;;54.90;2.13;;;;;;;;;;5052128;28;20936;-69
2023/08/11 13:44:14;;;;;;;54.63;2.00;;;;;;;;;;5052342;28;20492;-69
2023/08/11 13:46:41;;;;;;;54.50;2.20;;;;;;;;;;5052124;28;20448;-69
2023/08/11 13:49:08;;;;;;;54.70;2.20;;;;;;;;;;5052442;28;20452;-70
2023/08/11 13:51:36;;;;;;;54.30;1.80;;;;;;;;;;5052013;28;21027;-70
2023/08/11 13:54:03;;;;;;;54.37;2.23;;;;;;;;;;5052326;28;20470;-70
2023/08/11 13:56:33;;;;;;;54.60;1.83;;;;;;;;;;5052145;28;20906;-70
2023/08/11 13:59:02;;;;;;;54.20;2.00;;;;;;;;;;5052454;28;20448;-70
2023/08/11 14:01:30;;;;;;;54.60;2.20;;;;;;;;;;5052209;28;20442;-70
2023/08/11 14:03:57;;;;;;;54.27;1.97;;;;;;;;;;5051885;28;20468;-70
2023/08/11 14:06:25;;;;;;;53.97;2.07;;;;;;;;;;5052017;28;20471;-70
2023/08/11 14:08:52;;;;;;;53.87;2.07;;;;;;;;;;5051828;28;20450;-69
2023/08/11 14:11:22;;;;;;;54.13;1.80;;;;;;;;;;5051964;28;20483;-69
2023/08/11 14:13:50;;;;;;;54.27;1.90;;;;;;;;;;5051981;28;20832;-69
2023/08/11 14:16:18;;;;;;;54.17;2.33;;;;;;;;;;5051978;28;20444;-69
2023/08/11 14:18:45;;;;;;;54.47;2.13;;;;;;;;;;5051951;28;20447;-69
2023/08/11 14:21:12;;;;;;;54.27;2.23;;;;;;;;;;5051939;28;20436;-69
2023/08/11 14:23:40;;;;;;;53.97;1.80;;;;;;;;;;5051378;28;20476;-69
2023/08/11 14:26:07;;;;;;;53.80;1.97;;;;;;;;;;5051783;28;20966;-69
2023/08/11 14:28:34;;;;;;;54.50;2.00;;;;;;;;;;5051723;28;20914;-69
2023/08/11 14:31:01;;;;;;;54.10;1.70;;;;;;;;;;5051658;28;20448;-69
2023/08/11 14:33:29;;;;;;;53.87;2.00;;;;;;;;;;5051410;28;20460;-69